sensor_id;sensor_type;location;lat;lon;timestamp;temperature;humidity
4643;DHT22;2334;48.710;9.622;2023-04-29T00:01:41;10.80;99.90
4643;DHT22;2334;48.710;9.622;2023-04-29T00:04:07;10.70;99.90
4643;DHT22;2334;48.710;9.622;2023-04-29T00:06:34;10.70;99.90
4643;DHT22;2334;48.710;9.622;2023-04-29T00:09:01;10.70;99.90
4643;DHT22;2334;48.710;9.622;2023-04-29T00:11:29;10.70;99.90
4643;DHT22;2334;48.710;9.622;2023-04-29T00:13:55;10.70;99.90
4643;DHT22;2334;48.710;9.622;2023-04-29T00:16:22;10.70;99.90
4643;DHT22;2334;48.710;9.622;2023-04-29T00:18:51;10.70;99.90
4643;DHT22;2334;48.710;9.622;2023-04-29T00:21:17;10.70;99.90
4643;DHT22;2334;48.710;9.622;2023-04-29T00:23:45;10.70;99.90
4643;DHT22;2334;48.710;9.622;2023-04-29T00:26:12;10.70;99.90
4643;DHT22;2334;48.710;9.622;2023-04-29T00:28:42;10.70;99.90
4643;DHT22;2334;48.710;9.622;2023-04-29T00:31:09;10.70;99.90
4643;DHT22;2334;48.710;9.622;2023-04-29T00:33:36;10.70;99.90
4643;DHT22;2334;48.710;9.622;2023-04-29T00:36:04;10.60;99.90
4643;DHT22;2334;48.710;9.622;2023-04-29T00:38:31;10.50;99.90
4643;DHT22;2334;48.710;9.622;2023-04-29T00:40:58;10.50;99.90
4643;DHT22;2334;48.710;9.622;2023-04-29T00:43:25;10.50;99.90
4643;DHT22;2334;48.710;9.622;2023-04-29T00:45:52;10.40;99.90
4643;DHT22;2334;48.710;9.622;2023-04-29T00:48:19;10.50;99.90
4643;DHT22;2334;48.710;9.622;2023-04-29T00:50:46;10.50;99.90
4643;DHT22;2334;48.710;9.622;2023-04-29T00:53:14;10.50;99.90
4643;DHT22;2334;48.710;9.622;2023-04-29T00:55:43;10.60;99.90
4643;DHT22;2334;48.710;9.622;2023-04-29T00:58:11;10.50;99.90
4643;DHT22;2334;48.710;9.622;2023-04-29T01:00:38;10.60;99.90
4643;DHT22;2334;48.710;9.622;2023-04-29T01:03:07;10.60;99.90
4643;DHT22;2334;48.710;9.622;2023-04-29T01:05:34;10.60;99.90
4643;DHT22;2334;48.710;9.622;2023-04-29T01:08:11;10.60;99.90
4643;DHT22;2334;48.710;9.622;2023-04-29T01:10:45;10.60;99.90
4643;DHT22;2334;48.710;9.622;2023-04-29T01:13:17;10.50;99.90
4643;DHT22;2334;48.710;9.622;2023-04-29T01:15:59;10.50;99.90
4643;DHT22;2334;48.710;9.622;2023-04-29T01:18:31;10.40;99.90
4643;DHT22;2334;48.710;9.622;2023-04-29T01:20:59;10.40;99.90
4643;DHT22;2334;48.710;9.622;2023-04-29T01:23:27;10.40;99.90
4643;DHT22;2334;48.710;9.622;2023-04-29T01:25:55;10.40;99.90
4643;DHT22;2334;48.710;9.622;2023-04-29T01:28:30;10.40;99.90
4643;DHT22;2334;48.710;9.622;2023-04-29T01:31:05;10.40;99.90
4643;DHT22;2334;48.710;9.622;2023-04-29T01:33:39;10.40;99.90
4643;DHT22;2334;48.710;9.622;2023-04-29T01:36:18;10.50;99.90
4643;DHT22;2334;48.710;9.622;2023-04-29T01:38:55;10.40;99.90
4643;DHT22;2334;48.710;9.622;2023-04-29T01:41:30;10.40;99.90
4643;DHT22;2334;48.710;9.622;2023-04-29T01:44:01;10.50;99.90
4643;DHT22;2334;48.710;9.622;2023-04-29T01:46:30;10.40;99.90
4643;DHT22;2334;48.710;9.622;2023-04-29T01:48:57;10.50;99.90
4643;DHT22;2334;48.710;9.622;2023-04-29T01:51:23;10.50;99.90
4643;DHT22;2334;48.710;9.622;2023-04-29T01:53:52;10.40;99.90
4643;DHT22;2334;48.710;9.622;2023-04-29T01:56:19;10.40;99.90
4643;DHT22;2334;48.710;9.622;2023-04-29T01:58:46;10.40;99.90
4643;DHT22;2334;48.710;9.622;2023-04-29T02:01:13;10.30;99.90
4643;DHT22;2334;48.710;9.622;2023-04-29T02:03:40;10.30;99.90
4643;DHT22;2334;48.710;9.622;2023-04-29T02:06:06;10.30;99.90
4643;DHT22;2334;48.710;9.622;2023-04-29T02:08:33;10.30;99.90
4643;DHT22;2334;48.710;9.622;2023-04-29T02:11:01;10.20;99.90
4643;DHT22;2334;48.710;9.622;2023-04-29T02:13:28;10.20;99.90
4643;DHT22;2334;48.710;9.622;2023-04-29T02:15:56;10.20;99.90
4643;DHT22;2334;48.710;9.622;2023-04-29T02:18:23;10.20;99.90
4643;DHT22;2334;48.710;9.622;2023-04-29T02:20:50;10.20;99.90
4643;DHT22;2334;48.710;9.622;2023-04-29T02:23:18;10.20;99.90
4643;DHT22;2334;48.710;9.622;2023-04-29T02:25:45;10.20;99.90
4643;DHT22;2334;48.710;9.622;2023-04-29T02:28:13;10.20;99.90
4643;DHT22;2334;48.710;9.622;2023-04-29T02:30:40;10.20;99.90
4643;DHT22;2334;48.710;9.622;2023-04-29T02:33:07;10.20;99.90
4643;DHT22;2334;48.710;9.622;2023-04-29T02:35:34;10.20;99.90
4643;DHT22;2334;48.710;9.622;2023-04-29T02:38:01;10.30;99.90
4643;DHT22;2334;48.710;9.622;2023-04-29T02:40:28;10.20;99.90
4643;DHT22;2334;48.710;9.622;2023-04-29T02:42:55;10.30;99.90
4643;DHT22;2334;48.710;9.622;2023-04-29T02:45:23;10.30;99.90
4643;DHT22;2334;48.710;9.622;2023-04-29T02:47:50;10.30;99.90
4643;DHT22;2334;48.710;9.622;2023-04-29T02:50:17;10.40;99.90
4643;DHT22;2334;48.710;9.622;2023-04-29T02:52:44;10.40;99.90
4643;DHT22;2334;48.710;9.622;2023-04-29T02:55:11;10.40;99.90
4643;DHT22;2334;48.710;9.622;2023-04-29T02:57:38;10.40;99.90
4643;DHT22;2334;48.710;9.622;2023-04-29T03:00:07;10.40;99.90
4643;DHT22;2334;48.710;9.622;2023-04-29T03:02:36;10.40;99.90
4643;DHT22;2334;48.710;9.622;2023-04-29T03:05:03;10.40;99.90
4643;DHT22;2334;48.710;9.622;2023-04-29T03:07:30;10.50;99.90
4643;DHT22;2334;48.710;9.622;2023-04-29T03:09:57;10.40;99.90
4643;DHT22;2334;48.710;9.622;2023-04-29T03:12:24;10.40;99.90
4643;DHT22;2334;48.710;9.622;2023-04-29T03:14:51;10.50;99.90
4643;DHT22;2334;48.710;9.622;2023-04-29T03:17:18;10.40;99.90
4643;DHT22;2334;48.710;9.622;2023-04-29T03:19:46;10.40;99.90
4643;DHT22;2334;48.710;9.622;2023-04-29T03:22:13;10.40;99.90
4643;DHT22;2334;48.710;9.622;2023-04-29T03:24:40;10.40;99.90
4643;DHT22;2334;48.710;9.622;2023-04-29T03:27:06;10.40;99.90
4643;DHT22;2334;48.710;9.622;2023-04-29T03:29:33;10.50;99.90
4643;DHT22;2334;48.710;9.622;2023-04-29T03:32:00;10.40;99.90
4643;DHT22;2334;48.710;9.622;2023-04-29T03:34:27;10.40;99.90
4643;DHT22;2334;48.710;9.622;2023-04-29T03:36:56;10.50;99.90
4643;DHT22;2334;48.710;9.622;2023-04-29T03:39:23;10.30;99.90
4643;DHT22;2334;48.710;9.622;2023-04-29T03:41:50;10.30;99.90
4643;DHT22;2334;48.710;9.622;2023-04-29T03:44:17;10.20;99.90
4643;DHT22;2334;48.710;9.622;2023-04-29T03:46:44;10.20;99.90
4643;DHT22;2334;48.710;9.622;2023-04-29T03:49:11;10.30;99.90
4643;DHT22;2334;48.710;9.622;2023-04-29T03:51:38;10.20;99.90
4643;DHT22;2334;48.710;9.622;2023-04-29T03:54:06;10.10;99.90
4643;DHT22;2334;48.710;9.622;2023-04-29T03:56:34;10.20;99.90
4643;DHT22;2334;48.710;9.622;2023-04-29T03:59:01;10.20;99.90
4643;DHT22;2334;48.710;9.622;2023-04-29T04:01:28;10.30;99.90
4643;DHT22;2334;48.710;9.622;2023-04-29T04:03:55;10.30;99.90
4643;DHT22;2334;48.710;9.622;2023-04-29T04:06:22;10.30;99.90
4643;DHT22;2334;48.710;9.622;2023-04-29T04:08:49;10.30;99.90
4643;DHT22;2334;48.710;9.622;2023-04-29T04:11:17;10.30;99.90
4643;DHT22;2334;48.710;9.622;2023-04-29T04:13:44;10.30;99.90
4643;DHT22;2334;48.710;9.622;2023-04-29T04:16:11;10.30;99.90
4643;DHT22;2334;48.710;9.622;2023-04-29T04:18:38;10.30;99.90
4643;DHT22;2334;48.710;9.622;2023-04-29T04:21:05;10.30;99.90
4643;DHT22;2334;48.710;9.622;2023-04-29T04:23:32;10.30;99.90
4643;DHT22;2334;48.710;9.622;2023-04-29T04:25:59;10.30;99.90
4643;DHT22;2334;48.710;9.622;2023-04-29T04:28:27;10.30;99.90
4643;DHT22;2334;48.710;9.622;2023-04-29T04:30:54;10.20;99.90
4643;DHT22;2334;48.710;9.622;2023-04-29T04:33:21;10.20;99.90
4643;DHT22;2334;48.710;9.622;2023-04-29T04:35:48;10.10;99.90
4643;DHT22;2334;48.710;9.622;2023-04-29T04:38:15;10.10;99.90
4643;DHT22;2334;48.710;9.622;2023-04-29T04:40:42;10.00;99.90
4643;DHT22;2334;48.710;9.622;2023-04-29T04:43:09;10.00;99.90
4643;DHT22;2334;48.710;9.622;2023-04-29T04:45:37;10.00;99.90
4643;DHT22;2334;48.710;9.622;2023-04-29T04:48:05;10.00;99.90
4643;DHT22;2334;48.710;9.622;2023-04-29T04:50:31;9.90;99.90
4643;DHT22;2334;48.710;9.622;2023-04-29T04:52:58;9.90;99.90
4643;DHT22;2334;48.710;9.622;2023-04-29T04:55:25;10.00;99.90
4643;DHT22;2334;48.710;9.622;2023-04-29T04:57:52;10.00;99.90
4643;DHT22;2334;48.710;9.622;2023-04-29T05:00:19;10.00;99.90
4643;DHT22;2334;48.710;9.622;2023-04-29T05:02:47;10.10;99.90
4643;DHT22;2334;48.710;9.622;2023-04-29T05:05:14;10.10;99.90
4643;DHT22;2334;48.710;9.622;2023-04-29T05:07:41;10.10;99.90
4643;DHT22;2334;48.710;9.622;2023-04-29T05:10:09;10.10;99.90
4643;DHT22;2334;48.710;9.622;2023-04-29T05:12:36;10.20;99.90
4643;DHT22;2334;48.710;9.622;2023-04-29T05:15:03;10.30;99.90
4643;DHT22;2334;48.710;9.622;2023-04-29T05:17:30;10.40;99.90
4643;DHT22;2334;48.710;9.622;2023-04-29T05:19:58;10.40;99.90
4643;DHT22;2334;48.710;9.622;2023-04-29T05:22:25;10.40;99.90
4643;DHT22;2334;48.710;9.622;2023-04-29T05:24:52;10.40;99.90
4643;DHT22;2334;48.710;9.622;2023-04-29T05:27:19;10.50;99.90
4643;DHT22;2334;48.710;9.622;2023-04-29T05:29:46;10.50;99.90
4643;DHT22;2334;48.710;9.622;2023-04-29T05:32:13;10.60;99.90
4643;DHT22;2334;48.710;9.622;2023-04-29T05:34:40;10.50;99.90
4643;DHT22;2334;48.710;9.622;2023-04-29T05:37:10;10.60;99.90
4643;DHT22;2334;48.710;9.622;2023-04-29T05:39:37;10.70;99.90
4643;DHT22;2334;48.710;9.622;2023-04-29T05:42:04;10.80;99.90
4643;DHT22;2334;48.710;9.622;2023-04-29T05:44:31;10.80;99.90
4643;DHT22;2334;48.710;9.622;2023-04-29T05:46:59;10.90;99.90
4643;DHT22;2334;48.710;9.622;2023-04-29T05:49:26;11.00;99.90
4643;DHT22;2334;48.710;9.622;2023-04-29T05:51:53;11.00;99.90
4643;DHT22;2334;48.710;9.622;2023-04-29T05:54:21;11.10;99.90
4643;DHT22;2334;48.710;9.622;2023-04-29T05:56:48;11.10;99.90
4643;DHT22;2334;48.710;9.622;2023-04-29T05:59:15;11.20;99.90
4643;DHT22;2334;48.710;9.622;2023-04-29T06:01:42;11.20;99.90
4643;DHT22;2334;48.710;9.622;2023-04-29T06:04:08;11.30;99.90
4643;DHT22;2334;48.710;9.622;2023-04-29T06:06:35;11.30;99.90
4643;DHT22;2334;48.710;9.622;2023-04-29T06:09:03;11.40;99.90
4643;DHT22;2334;48.710;9.622;2023-04-29T06:11:31;11.40;99.90
4643;DHT22;2334;48.710;9.622;2023-04-29T06:13:58;11.40;99.90
4643;DHT22;2334;48.710;9.622;2023-04-29T06:16:25;11.40;99.90
4643;DHT22;2334;48.710;9.622;2023-04-29T06:18:52;11.60;99.90
4643;DHT22;2334;48.710;9.622;2023-04-29T06:21:19;11.70;99.90
4643;DHT22;2334;48.710;9.622;2023-04-29T06:23:46;11.70;99.90
4643;DHT22;2334;48.710;9.622;2023-04-29T06:26:12;11.80;99.90
4643;DHT22;2334;48.710;9.622;2023-04-29T06:28:41;11.90;99.90
4643;DHT22;2334;48.710;9.622;2023-04-29T06:31:08;12.00;99.90
4643;DHT22;2334;48.710;9.622;2023-04-29T06:33:34;12.10;99.90
4643;DHT22;2334;48.710;9.622;2023-04-29T06:36:01;12.20;99.90
4643;DHT22;2334;48.710;9.622;2023-04-29T06:38:29;12.40;99.90
4643;DHT22;2334;48.710;9.622;2023-04-29T06:40:55;12.60;99.90
4643;DHT22;2334;48.710;9.622;2023-04-29T06:43:25;12.70;99.90
4643;DHT22;2334;48.710;9.622;2023-04-29T06:45:53;12.80;99.90
4643;DHT22;2334;48.710;9.622;2023-04-29T06:48:20;13.00;99.90
4643;DHT22;2334;48.710;9.622;2023-04-29T06:50:51;13.00;99.90
4643;DHT22;2334;48.710;9.622;2023-04-29T06:53:18;13.10;99.90
4643;DHT22;2334;48.710;9.622;2023-04-29T06:55:45;13.20;99.90
4643;DHT22;2334;48.710;9.622;2023-04-29T06:58:12;13.20;99.90
4643;DHT22;2334;48.710;9.622;2023-04-29T07:00:39;13.40;99.90
4643;DHT22;2334;48.710;9.622;2023-04-29T07:03:07;13.50;99.90
4643;DHT22;2334;48.710;9.622;2023-04-29T07:05:35;13.60;99.90
4643;DHT22;2334;48.710;9.622;2023-04-29T07:08:04;13.60;99.90
4643;DHT22;2334;48.710;9.622;2023-04-29T07:10:31;13.50;99.90
4643;DHT22;2334;48.710;9.622;2023-04-29T07:12:58;13.40;99.90
4643;DHT22;2334;48.710;9.622;2023-04-29T07:15:25;13.40;99.90
4643;DHT22;2334;48.710;9.622;2023-04-29T07:17:52;13.50;99.90
4643;DHT22;2334;48.710;9.622;2023-04-29T07:20:20;13.70;99.90
4643;DHT22;2334;48.710;9.622;2023-04-29T07:22:47;14.00;99.90
4643;DHT22;2334;48.710;9.622;2023-04-29T07:25:14;14.40;99.90
4643;DHT22;2334;48.710;9.622;2023-04-29T07:27:41;14.80;99.90
4643;DHT22;2334;48.710;9.622;2023-04-29T07:30:08;15.00;99.90
4643;DHT22;2334;48.710;9.622;2023-04-29T07:32:35;15.10;99.90
4643;DHT22;2334;48.710;9.622;2023-04-29T07:35:02;14.90;99.90
4643;DHT22;2334;48.710;9.622;2023-04-29T07:37:30;14.80;99.90
4643;DHT22;2334;48.710;9.622;2023-04-29T07:39:57;14.60;99.90
4643;DHT22;2334;48.710;9.622;2023-04-29T07:42:23;14.60;99.90
4643;DHT22;2334;48.710;9.622;2023-04-29T07:44:50;14.50;99.90
4643;DHT22;2334;48.710;9.622;2023-04-29T07:47:17;14.50;99.90
4643;DHT22;2334;48.710;9.622;2023-04-29T07:49:44;14.50;99.90
4643;DHT22;2334;48.710;9.622;2023-04-29T07:52:11;14.40;99.90
4643;DHT22;2334;48.710;9.622;2023-04-29T07:54:39;14.50;99.90
4643;DHT22;2334;48.710;9.622;2023-04-29T07:57:06;14.70;99.90
4643;DHT22;2334;48.710;9.622;2023-04-29T07:59:33;14.80;99.90
4643;DHT22;2334;48.710;9.622;2023-04-29T08:02:00;15.00;99.90
4643;DHT22;2334;48.710;9.622;2023-04-29T08:04:27;15.00;99.90
4643;DHT22;2334;48.710;9.622;2023-04-29T08:06:54;15.00;99.90
4643;DHT22;2334;48.710;9.622;2023-04-29T08:09:20;15.00;99.90
4643;DHT22;2334;48.710;9.622;2023-04-29T08:11:49;14.90;99.90
4643;DHT22;2334;48.710;9.622;2023-04-29T08:14:15;14.70;99.90
4643;DHT22;2334;48.710;9.622;2023-04-29T08:16:42;14.60;99.90
4643;DHT22;2334;48.710;9.622;2023-04-29T08:19:09;14.60;99.90
4643;DHT22;2334;48.710;9.622;2023-04-29T08:21:36;14.50;99.90
4643;DHT22;2334;48.710;9.622;2023-04-29T08:24:03;14.40;99.90
4643;DHT22;2334;48.710;9.622;2023-04-29T08:26:30;14.40;99.90
4643;DHT22;2334;48.710;9.622;2023-04-29T08:28:58;14.30;99.90
4643;DHT22;2334;48.710;9.622;2023-04-29T08:31:25;14.40;99.90
4643;DHT22;2334;48.710;9.622;2023-04-29T08:33:53;14.40;99.90
4643;DHT22;2334;48.710;9.622;2023-04-29T08:36:20;14.50;99.90
4643;DHT22;2334;48.710;9.622;2023-04-29T08:38:47;14.60;99.90
4643;DHT22;2334;48.710;9.622;2023-04-29T08:41:17;14.80;99.90
4643;DHT22;2334;48.710;9.622;2023-04-29T08:43:44;15.00;99.90
4643;DHT22;2334;48.710;9.622;2023-04-29T08:46:43;14.90;99.90
4643;DHT22;2334;48.710;9.622;2023-04-29T08:49:11;14.90;99.90
4643;DHT22;2334;48.710;9.622;2023-04-29T08:51:38;15.00;99.90
4643;DHT22;2334;48.710;9.622;2023-04-29T08:54:05;15.10;99.90
4643;DHT22;2334;48.710;9.622;2023-04-29T08:56:33;15.10;99.90
4643;DHT22;2334;48.710;9.622;2023-04-29T08:59:01;15.00;99.90
4643;DHT22;2334;48.710;9.622;2023-04-29T09:01:29;14.90;99.90
4643;DHT22;2334;48.710;9.622;2023-04-29T09:04:07;15.00;99.90
4643;DHT22;2334;48.710;9.622;2023-04-29T09:06:35;15.10;99.90
4643;DHT22;2334;48.710;9.622;2023-04-29T09:09:02;15.10;99.90
4643;DHT22;2334;48.710;9.622;2023-04-29T09:11:30;15.40;99.90
4643;DHT22;2334;48.710;9.622;2023-04-29T09:13:58;15.90;99.90
4643;DHT22;2334;48.710;9.622;2023-04-29T09:16:25;16.00;99.90
4643;DHT22;2334;48.710;9.622;2023-04-29T09:18:52;15.80;99.90
4643;DHT22;2334;48.710;9.622;2023-04-29T09:21:23;15.80;99.90
4643;DHT22;2334;48.710;9.622;2023-04-29T09:23:52;15.50;99.90
4643;DHT22;2334;48.710;9.622;2023-04-29T09:26:19;15.50;99.90
4643;DHT22;2334;48.710;9.622;2023-04-29T09:28:47;15.70;99.90
4643;DHT22;2334;48.710;9.622;2023-04-29T09:31:14;15.70;99.90
4643;DHT22;2334;48.710;9.622;2023-04-29T09:33:51;15.60;99.90
4643;DHT22;2334;48.710;9.622;2023-04-29T09:36:40;15.60;99.90
4643;DHT22;2334;48.710;9.622;2023-04-29T09:39:10;15.60;99.90
4643;DHT22;2334;48.710;9.622;2023-04-29T09:41:39;15.60;99.90
4643;DHT22;2334;48.710;9.622;2023-04-29T09:44:07;15.50;99.90
4643;DHT22;2334;48.710;9.622;2023-04-29T09:46:35;15.40;99.90
4643;DHT22;2334;48.710;9.622;2023-04-29T09:49:02;15.50;99.90
4643;DHT22;2334;48.710;9.622;2023-04-29T09:51:30;15.70;99.90
4643;DHT22;2334;48.710;9.622;2023-04-29T09:54:00;15.70;99.90
4643;DHT22;2334;48.710;9.622;2023-04-29T09:56:48;15.80;99.90
4643;DHT22;2334;48.710;9.622;2023-04-29T09:59:15;15.80;99.90
4643;DHT22;2334;48.710;9.622;2023-04-29T10:01:42;15.80;99.90
4643;DHT22;2334;48.710;9.622;2023-04-29T10:04:10;15.80;99.90
4643;DHT22;2334;48.710;9.622;2023-04-29T10:06:38;15.90;99.90
4643;DHT22;2334;48.710;9.622;2023-04-29T10:09:10;15.90;99.90
4643;DHT22;2334;48.710;9.622;2023-04-29T10:11:40;16.00;99.90
4643;DHT22;2334;48.710;9.622;2023-04-29T10:14:11;16.10;99.90
4643;DHT22;2334;48.710;9.622;2023-04-29T10:16:43;16.10;99.90
4643;DHT22;2334;48.710;9.622;2023-04-29T10:19:11;16.10;99.90
4643;DHT22;2334;48.710;9.622;2023-04-29T10:21:41;16.10;99.90
4643;DHT22;2334;48.710;9.622;2023-04-29T10:24:10;15.90;99.90
4643;DHT22;2334;48.710;9.622;2023-04-29T10:26:41;16.00;99.90
4643;DHT22;2334;48.710;9.622;2023-04-29T10:29:10;16.10;99.90
4643;DHT22;2334;48.710;9.622;2023-04-29T10:31:39;16.30;99.90
4643;DHT22;2334;48.710;9.622;2023-04-29T10:34:06;16.40;99.90
4643;DHT22;2334;48.710;9.622;2023-04-29T10:36:34;16.60;99.90
4643;DHT22;2334;48.710;9.622;2023-04-29T10:39:03;16.70;99.90
4643;DHT22;2334;48.710;9.622;2023-04-29T10:41:36;16.90;99.90
4643;DHT22;2334;48.710;9.622;2023-04-29T10:44:09;16.90;99.90
4643;DHT22;2334;48.710;9.622;2023-04-29T10:46:36;16.80;99.90
4643;DHT22;2334;48.710;9.622;2023-04-29T10:49:04;16.90;99.90
4643;DHT22;2334;48.710;9.622;2023-04-29T10:51:33;17.20;99.90
4643;DHT22;2334;48.710;9.622;2023-04-29T10:54:02;17.40;99.90
4643;DHT22;2334;48.710;9.622;2023-04-29T10:56:47;17.40;99.90
4643;DHT22;2334;48.710;9.622;2023-04-29T10:59:17;17.40;99.90
4643;DHT22;2334;48.710;9.622;2023-04-29T11:01:47;17.70;99.90
4643;DHT22;2334;48.710;9.622;2023-04-29T11:04:15;18.10;99.90
4643;DHT22;2334;48.710;9.622;2023-04-29T11:06:47;18.40;99.90
4643;DHT22;2334;48.710;9.622;2023-04-29T11:09:23;18.60;99.90
4643;DHT22;2334;48.710;9.622;2023-04-29T11:11:59;19.10;99.90
4643;DHT22;2334;48.710;9.622;2023-04-29T11:14:30;18.80;99.90
4643;DHT22;2334;48.710;9.622;2023-04-29T11:16:58;18.50;99.90
4643;DHT22;2334;48.710;9.622;2023-04-29T11:19:29;18.40;99.90
4643;DHT22;2334;48.710;9.622;2023-04-29T11:22:24;18.00;99.90
4643;DHT22;2334;48.710;9.622;2023-04-29T11:24:53;17.80;99.90
4643;DHT22;2334;48.710;9.622;2023-04-29T11:27:23;17.70;99.90
4643;DHT22;2334;48.710;9.622;2023-04-29T11:29:51;18.20;99.90
4643;DHT22;2334;48.710;9.622;2023-04-29T11:32:23;18.50;99.90
4643;DHT22;2334;48.710;9.622;2023-04-29T11:34:50;18.30;99.90
4643;DHT22;2334;48.710;9.622;2023-04-29T11:37:22;18.00;99.90
4643;DHT22;2334;48.710;9.622;2023-04-29T11:39:49;17.80;99.90
4643;DHT22;2334;48.710;9.622;2023-04-29T11:42:21;17.60;99.90
4643;DHT22;2334;48.710;9.622;2023-04-29T11:44:52;17.80;99.90
4643;DHT22;2334;48.710;9.622;2023-04-29T11:47:25;18.40;99.90
4643;DHT22;2334;48.710;9.622;2023-04-29T11:49:52;18.70;99.90
4643;DHT22;2334;48.710;9.622;2023-04-29T11:52:19;18.70;99.90
4643;DHT22;2334;48.710;9.622;2023-04-29T11:54:46;18.40;99.90
4643;DHT22;2334;48.710;9.622;2023-04-29T11:57:13;18.20;99.90
4643;DHT22;2334;48.710;9.622;2023-04-29T11:59:42;18.10;99.90
4643;DHT22;2334;48.710;9.622;2023-04-29T12:02:11;18.10;99.90
4643;DHT22;2334;48.710;9.622;2023-04-29T12:04:44;17.90;99.90
4643;DHT22;2334;48.710;9.622;2023-04-29T12:07:13;17.90;99.90
4643;DHT22;2334;48.710;9.622;2023-04-29T12:09:41;17.90;99.90
4643;DHT22;2334;48.710;9.622;2023-04-29T12:12:09;17.90;99.90
4643;DHT22;2334;48.710;9.622;2023-04-29T12:14:37;17.90;99.90
4643;DHT22;2334;48.710;9.622;2023-04-29T12:17:06;17.90;99.90
4643;DHT22;2334;48.710;9.622;2023-04-29T12:19:33;18.00;99.90
4643;DHT22;2334;48.710;9.622;2023-04-29T12:22:03;17.90;99.90
4643;DHT22;2334;48.710;9.622;2023-04-29T12:24:33;17.90;99.90
4643;DHT22;2334;48.710;9.622;2023-04-29T12:27:00;18.00;99.90
4643;DHT22;2334;48.710;9.622;2023-04-29T12:29:27;18.10;99.90
4643;DHT22;2334;48.710;9.622;2023-04-29T12:31:55;18.30;99.90
4643;DHT22;2334;48.710;9.622;2023-04-29T12:34:27;18.10;99.90
4643;DHT22;2334;48.710;9.622;2023-04-29T12:36:55;17.70;99.90
4643;DHT22;2334;48.710;9.622;2023-04-29T12:39:22;17.50;99.90
4643;DHT22;2334;48.710;9.622;2023-04-29T12:41:54;17.50;99.90
4643;DHT22;2334;48.710;9.622;2023-04-29T12:44:22;17.40;99.90
4643;DHT22;2334;48.710;9.622;2023-04-29T12:46:49;17.40;99.90
4643;DHT22;2334;48.710;9.622;2023-04-29T12:49:17;17.30;99.90
4643;DHT22;2334;48.710;9.622;2023-04-29T12:51:46;17.40;99.90
4643;DHT22;2334;48.710;9.622;2023-04-29T12:54:13;17.40;99.90
4643;DHT22;2334;48.710;9.622;2023-04-29T12:56:40;17.20;99.90
4643;DHT22;2334;48.710;9.622;2023-04-29T12:59:08;17.20;99.90
4643;DHT22;2334;48.710;9.622;2023-04-29T13:01:36;17.30;99.90
4643;DHT22;2334;48.710;9.622;2023-04-29T13:04:03;17.30;99.90
4643;DHT22;2334;48.710;9.622;2023-04-29T13:06:33;17.30;99.90
4643;DHT22;2334;48.710;9.622;2023-04-29T13:09:05;17.10;99.90
4643;DHT22;2334;48.710;9.622;2023-04-29T13:11:32;17.20;99.90
4643;DHT22;2334;48.710;9.622;2023-04-29T13:13:59;17.20;99.90
4643;DHT22;2334;48.710;9.622;2023-04-29T13:16:26;17.30;99.90
4643;DHT22;2334;48.710;9.622;2023-04-29T13:18:53;17.40;99.90
4643;DHT22;2334;48.710;9.622;2023-04-29T13:21:20;17.70;99.90
4643;DHT22;2334;48.710;9.622;2023-04-29T13:23:47;17.80;99.90
4643;DHT22;2334;48.710;9.622;2023-04-29T13:26:16;17.80;99.90
4643;DHT22;2334;48.710;9.622;2023-04-29T13:28:42;17.70;99.90
4643;DHT22;2334;48.710;9.622;2023-04-29T13:31:09;17.50;99.90
4643;DHT22;2334;48.710;9.622;2023-04-29T13:33:36;17.40;99.90
4643;DHT22;2334;48.710;9.622;2023-04-29T13:36:03;17.40;99.90
4643;DHT22;2334;48.710;9.622;2023-04-29T13:38:30;17.40;99.90
4643;DHT22;2334;48.710;9.622;2023-04-29T13:40:57;17.30;99.90
4643;DHT22;2334;48.710;9.622;2023-04-29T13:43:25;17.30;99.90
4643;DHT22;2334;48.710;9.622;2023-04-29T13:45:52;17.20;99.90
4643;DHT22;2334;48.710;9.622;2023-04-29T13:48:20;17.20;99.90
4643;DHT22;2334;48.710;9.622;2023-04-29T13:50:48;17.10;99.90
4643;DHT22;2334;48.710;9.622;2023-04-29T13:53:15;17.10;99.90
4643;DHT22;2334;48.710;9.622;2023-04-29T13:55:42;17.10;99.90
4643;DHT22;2334;48.710;9.622;2023-04-29T13:58:09;17.10;99.90
4643;DHT22;2334;48.710;9.622;2023-04-29T14:00:37;17.00;99.90
4643;DHT22;2334;48.710;9.622;2023-04-29T14:03:04;16.90;99.90
4643;DHT22;2334;48.710;9.622;2023-04-29T14:05:33;16.90;99.90
4643;DHT22;2334;48.710;9.622;2023-04-29T14:07:59;17.00;99.90
4643;DHT22;2334;48.710;9.622;2023-04-29T14:10:26;17.00;99.90
4643;DHT22;2334;48.710;9.622;2023-04-29T14:12:54;17.10;99.90
4643;DHT22;2334;48.710;9.622;2023-04-29T14:15:20;17.10;99.90
4643;DHT22;2334;48.710;9.622;2023-04-29T14:17:49;17.00;99.90
4643;DHT22;2334;48.710;9.622;2023-04-29T14:20:16;16.90;99.90
4643;DHT22;2334;48.710;9.622;2023-04-29T14:22:43;16.70;99.90
4643;DHT22;2334;48.710;9.622;2023-04-29T14:25:09;16.70;99.90
4643;DHT22;2334;48.710;9.622;2023-04-29T14:27:37;16.70;99.90
4643;DHT22;2334;48.710;9.622;2023-04-29T14:30:05;16.90;99.90
4643;DHT22;2334;48.710;9.622;2023-04-29T14:32:33;17.20;99.90
4643;DHT22;2334;48.710;9.622;2023-04-29T14:35:01;17.20;99.90
4643;DHT22;2334;48.710;9.622;2023-04-29T14:37:28;17.10;99.90
4643;DHT22;2334;48.710;9.622;2023-04-29T14:39:54;17.20;99.90
4643;DHT22;2334;48.710;9.622;2023-04-29T14:42:21;17.00;99.90
4643;DHT22;2334;48.710;9.622;2023-04-29T14:44:49;17.10;99.90
4643;DHT22;2334;48.710;9.622;2023-04-29T14:47:16;17.00;99.90
4643;DHT22;2334;48.710;9.622;2023-04-29T14:49:43;16.90;99.90
4643;DHT22;2334;48.710;9.622;2023-04-29T14:52:11;16.90;99.90
4643;DHT22;2334;48.710;9.622;2023-04-29T14:54:38;16.70;99.90
4643;DHT22;2334;48.710;9.622;2023-04-29T14:57:05;16.60;99.90
4643;DHT22;2334;48.710;9.622;2023-04-29T14:59:32;16.50;99.90
4643;DHT22;2334;48.710;9.622;2023-04-29T15:01:59;16.50;99.90
4643;DHT22;2334;48.710;9.622;2023-04-29T15:04:25;16.40;99.90
4643;DHT22;2334;48.710;9.622;2023-04-29T15:06:53;16.50;99.90
4643;DHT22;2334;48.710;9.622;2023-04-29T15:09:21;16.40;99.90
4643;DHT22;2334;48.710;9.622;2023-04-29T15:11:49;16.30;99.90
4643;DHT22;2334;48.710;9.622;2023-04-29T15:14:16;16.30;99.90
4643;DHT22;2334;48.710;9.622;2023-04-29T15:16:43;16.30;99.90
4643;DHT22;2334;48.710;9.622;2023-04-29T15:19:10;16.30;99.90
4643;DHT22;2334;48.710;9.622;2023-04-29T15:21:37;16.30;99.90
4643;DHT22;2334;48.710;9.622;2023-04-29T15:24:04;16.30;99.90
4643;DHT22;2334;48.710;9.622;2023-04-29T15:26:33;16.30;99.90
4643;DHT22;2334;48.710;9.622;2023-04-29T15:29:00;16.30;99.90
4643;DHT22;2334;48.710;9.622;2023-04-29T15:31:27;16.30;99.90
4643;DHT22;2334;48.710;9.622;2023-04-29T15:33:54;16.30;99.90
4643;DHT22;2334;48.710;9.622;2023-04-29T15:36:26;16.30;99.90
4643;DHT22;2334;48.710;9.622;2023-04-29T15:38:54;16.20;99.90
4643;DHT22;2334;48.710;9.622;2023-04-29T15:41:21;16.20;99.90
4643;DHT22;2334;48.710;9.622;2023-04-29T15:43:52;16.20;99.90
4643;DHT22;2334;48.710;9.622;2023-04-29T15:46:20;16.20;99.90
4643;DHT22;2334;48.710;9.622;2023-04-29T15:48:47;16.20;99.90
4643;DHT22;2334;48.710;9.622;2023-04-29T15:51:13;16.30;99.90
4643;DHT22;2334;48.710;9.622;2023-04-29T15:53:40;16.30;99.90
4643;DHT22;2334;48.710;9.622;2023-04-29T15:56:08;16.40;99.90
4643;DHT22;2334;48.710;9.622;2023-04-29T15:58:35;16.30;99.90
4643;DHT22;2334;48.710;9.622;2023-04-29T16:01:03;16.20;99.90
4643;DHT22;2334;48.710;9.622;2023-04-29T16:03:30;16.20;99.90
4643;DHT22;2334;48.710;9.622;2023-04-29T16:05:57;16.20;99.90
4643;DHT22;2334;48.710;9.622;2023-04-29T16:08:24;16.20;99.90